createdAt,value
2023-05-21T00:02:09.057Z,69.40
2023-05-21T00:04:36.152Z,69.55
2023-05-21T00:07:03.153Z,69.50
2023-05-21T00:09:30.083Z,69.70
2023-05-21T00:11:57.018Z,69.44
2023-05-21T00:14:24.132Z,69.75
2023-05-21T00:16:51.094Z,69.34
2023-05-21T00:19:19.546Z,69.58
2023-05-21T00:21:46.537Z,69.50
2023-05-21T00:24:13.408Z,70.38
2023-05-21T00:26:40.510Z,70.71
2023-05-21T00:29:07.383Z,70.69
2023-05-21T00:31:36.011Z,70.70
2023-05-21T00:34:03.480Z,71.03
2023-05-21T00:36:31.951Z,71.11
2023-05-21T00:38:58.855Z,70.66
2023-05-21T00:41:25.985Z,70.43
2023-05-21T00:43:52.935Z,70.42
2023-05-21T00:46:22.851Z,70.67
2023-05-21T00:48:52.069Z,71.13
2023-05-21T00:51:19.536Z,71.21
2023-05-21T00:53:51.320Z,71.26
2023-05-21T00:56:19.608Z,71.60
2023-05-21T00:58:46.624Z,71.54
2023-05-21T01:01:14.142Z,71.66
2023-05-21T01:03:43.243Z,71.76
2023-05-21T01:06:11.563Z,71.65
2023-05-21T01:08:40.045Z,72.03
2023-05-21T01:11:10.980Z,72.04
2023-05-21T01:13:41.983Z,72.17
2023-05-21T01:16:10.336Z,72.52
2023-05-21T01:18:38.424Z,72.36
2023-05-21T01:21:06.280Z,72.08
2023-05-21T01:23:35.110Z,71.93
2023-05-21T01:26:02.221Z,72.13
2023-05-21T01:28:29.224Z,72.13
2023-05-21T01:31:04.844Z,72.24
2023-05-21T01:33:41.364Z,72.27
2023-05-21T01:36:17.082Z,72.02
2023-05-21T01:38:56.755Z,72.16
2023-05-21T01:41:29.540Z,72.21
2023-05-21T01:43:57.372Z,72.51
2023-05-21T01:46:30.607Z,72.62
2023-05-21T01:48:58.122Z,72.86
2023-05-21T01:51:27.160Z,73.11
2023-05-21T01:53:55.455Z,73.19
2023-05-21T01:56:22.373Z,72.98
2023-05-21T01:58:49.310Z,72.80
2023-05-21T02:05:47.832Z,73.50
2023-05-21T02:08:15.582Z,73.53
2023-05-21T02:10:44.141Z,73.68
2023-05-21T02:13:11.407Z,73.42
2023-05-21T02:15:38.442Z,73.53
2023-05-21T02:18:05.877Z,73.61
2023-05-21T02:20:33.465Z,73.58
2023-05-21T02:23:00.534Z,73.67
2023-05-21T02:25:27.408Z,73.53
2023-05-21T02:27:55.943Z,73.60
2023-05-21T02:30:22.851Z,73.37
2023-05-21T02:32:49.718Z,73.39
2023-05-21T02:35:16.775Z,73.62
2023-05-21T02:37:44.364Z,73.91
2023-05-21T02:40:12.760Z,74.08
2023-05-21T02:42:40.679Z,74.52
2023-05-21T02:45:12.950Z,74.50
2023-05-21T02:47:42.084Z,74.56
2023-05-21T02:50:09.951Z,74.58
2023-05-21T02:52:44.210Z,74.45
2023-05-21T02:55:11.196Z,74.53
2023-05-21T02:57:38.219Z,74.78
2023-05-21T03:00:07.054Z,74.89
2023-05-21T03:02:36.145Z,74.98
2023-05-21T03:05:03.382Z,75.43
2023-05-21T03:07:50.926Z,75.29
2023-05-21T03:10:25.799Z,75.44
2023-05-21T03:12:53.090Z,75.62
2023-05-21T03:15:21.237Z,75.66
2023-05-21T03:17:49.628Z,75.65
2023-05-21T03:20:16.800Z,75.72
2023-05-21T03:22:44.260Z,75.74
2023-05-21T03:25:11.365Z,76.10
2023-05-21T03:27:39.782Z,75.96
2023-05-21T03:30:53.901Z,76.50
2023-05-21T03:33:54.807Z,77.69
2023-05-21T03:36:25.089Z,78.69
2023-05-21T03:38:52.420Z,78.82
2023-05-21T03:41:20.549Z,79.03
2023-05-21T03:43:51.846Z,79.07
2023-05-21T03:46:21.344Z,79.32
2023-05-21T03:49:16.727Z,79.43
2023-05-21T03:51:43.878Z,79.08
2023-05-21T03:54:14.676Z,78.89
2023-05-21T03:56:41.720Z,78.74
2023-05-21T03:59:09.272Z,78.88
2023-05-21T04:01:36.708Z,79.30
2023-05-21T04:04:05.432Z,79.50
2023-05-21T04:06:34.799Z,79.05
2023-05-21T04:09:01.740Z,78.99
2023-05-21T04:11:29.914Z,79.12
2023-05-21T04:13:57.133Z,78.86
2023-05-21T04:16:24.932Z,78.97
2023-05-21T04:18:53.495Z,78.88
2023-05-21T04:21:21.027Z,78.59
2023-05-21T04:23:49.464Z,78.20
2023-05-21T04:26:30.259Z,77.86
2023-05-21T04:28:58.775Z,77.87
2023-05-21T04:31:25.959Z,77.61
2023-05-21T04:34:14.148Z,77.37
2023-05-21T04:36:41.947Z,77.52
2023-05-21T04:39:11.139Z,77.17
2023-05-21T04:41:38.655Z,76.87
2023-05-21T04:44:07.739Z,77.44
2023-05-21T04:46:35.641Z,77.95
2023-05-21T04:49:02.810Z,78.39
2023-05-21T04:51:30.129Z,79.04
2023-05-21T04:53:57.534Z,79.22
2023-05-21T04:56:26.057Z,79.19
2023-05-21T04:58:53.599Z,79.00
2023-05-21T05:01:21.476Z,78.92
2023-05-21T05:03:49.655Z,79.79
2023-05-21T05:06:17.113Z,80.52
2023-05-21T05:08:45.339Z,80.52
2023-05-21T05:11:12.360Z,80.80
2023-05-21T05:13:41.315Z,80.61
2023-05-21T05:16:08.950Z,79.75
2023-05-21T05:18:36.825Z,79.77
2023-05-21T05:21:04.185Z,79.38
2023-05-21T05:23:31.912Z,79.00
2023-05-21T05:25:58.923Z,78.15
2023-05-21T05:28:26.003Z,78.17
2023-05-21T05:30:54.511Z,77.78
2023-05-21T05:33:24.666Z,77.30
2023-05-21T05:35:51.594Z,76.75
2023-05-21T05:38:18.545Z,76.29
2023-05-21T05:40:45.668Z,75.99
2023-05-21T05:43:12.841Z,75.46
2023-05-21T05:45:40.179Z,74.91
2023-05-21T05:48:14.012Z,74.19
2023-05-21T05:50:42.209Z,73.08
2023-05-21T05:53:10.489Z,72.83
2023-05-21T05:55:37.929Z,72.17
2023-05-21T05:58:05.682Z,72.09
2023-05-21T06:00:38.854Z,71.97
2023-05-21T06:03:05.970Z,71.35
2023-05-21T06:05:35.370Z,70.71
2023-05-21T06:08:02.552Z,69.70
2023-05-21T06:10:30.600Z,70.27
2023-05-21T06:12:57.606Z,69.94
2023-05-21T06:15:24.550Z,70.38
2023-05-21T06:17:52.440Z,70.50
2023-05-21T06:20:19.759Z,70.36
2023-05-21T06:22:48.205Z,69.83
2023-05-21T06:25:16.130Z,69.47
2023-05-21T06:27:43.512Z,69.45
2023-05-21T06:30:18.112Z,68.16
2023-05-21T06:32:45.453Z,68.30
2023-05-21T06:35:12.572Z,67.06
2023-05-21T06:37:39.393Z,66.72
2023-05-21T06:40:10.130Z,65.92
2023-05-21T06:42:37.753Z,65.03
2023-05-21T06:45:36.658Z,63.99
2023-05-21T06:48:18.963Z,62.90
2023-05-21T06:50:48.063Z,61.45
2023-05-21T06:53:15.007Z,60.87
2023-05-21T06:55:43.727Z,58.83
2023-05-21T06:58:21.313Z,57.11
2023-05-21T07:00:49.035Z,55.57
2023-05-21T07:03:16.259Z,53.02
2023-05-21T07:05:43.351Z,52.43
2023-05-21T07:08:12.002Z,50.67
2023-05-21T07:10:39.532Z,49.70
2023-05-21T07:13:08.280Z,48.45
2023-05-21T07:15:38.009Z,47.26
2023-05-21T07:18:05.148Z,49.00
2023-05-21T07:20:32.098Z,50.17
2023-05-21T07:23:02.562Z,50.89
2023-05-21T07:25:30.579Z,49.58
2023-05-21T07:27:57.783Z,50.46
2023-05-21T07:30:29.749Z,52.15
2023-05-21T07:32:57.801Z,52.80
2023-05-21T07:35:25.097Z,50.66
2023-05-21T07:37:52.101Z,49.53
2023-05-21T07:40:19.274Z,48.68
2023-05-21T07:42:47.492Z,48.05
2023-05-21T07:45:17.549Z,46.59
2023-05-21T07:47:46.583Z,46.18
2023-05-21T07:50:14.815Z,45.99
2023-05-21T07:52:42.465Z,46.07
2023-05-21T07:55:09.953Z,45.14
2023-05-21T07:57:39.422Z,43.99
2023-05-21T08:00:11.836Z,44.61
2023-05-21T08:02:54.200Z,45.64
2023-05-21T08:05:21.467Z,44.55
2023-05-21T08:07:49.377Z,44.31
2023-05-21T08:10:19.151Z,45.70
2023-05-21T08:12:49.296Z,44.57
2023-05-21T08:15:16.487Z,43.78
2023-05-21T08:17:46.591Z,42.96
2023-05-21T08:20:15.505Z,43.41
2023-05-21T08:22:44.432Z,45.37
2023-05-21T08:25:12.174Z,45.78
2023-05-21T08:27:39.246Z,45.49
2023-05-21T08:30:08.481Z,44.55
2023-05-21T08:32:38.626Z,44.46
2023-05-21T08:35:07.287Z,45.52
2023-05-21T08:38:27.041Z,45.59
2023-05-21T08:41:00.923Z,44.31
2023-05-21T08:43:30.154Z,43.65
2023-05-21T08:46:03.480Z,43.42
2023-05-21T08:48:35.030Z,43.36
2023-05-21T08:51:02.499Z,42.29
2023-05-21T08:53:34.774Z,42.97
2023-05-21T08:56:06.609Z,44.55
2023-05-21T08:58:49.582Z,45.68
2023-05-21T09:01:23.412Z,45.98
2023-05-21T09:04:04.875Z,46.26
2023-05-21T09:06:36.416Z,45.90
2023-05-21T09:09:15.505Z,45.15
2023-05-21T09:11:47.924Z,45.26
2023-05-21T09:14:15.159Z,45.59
2023-05-21T09:16:59.076Z,44.26
2023-05-21T09:19:26.924Z,43.49
2023-05-21T09:21:54.299Z,41.82
2023-05-21T09:24:31.499Z,45.38
2023-05-21T09:26:59.268Z,43.83
2023-05-21T09:29:27.076Z,45.40
2023-05-21T09:31:54.792Z,43.29
2023-05-21T09:34:25.229Z,43.58
2023-05-21T09:36:56.623Z,43.78
2023-05-21T09:39:30.997Z,44.21
2023-05-21T09:42:03.018Z,45.17
2023-05-21T09:44:30.297Z,44.43
2023-05-21T09:46:58.149Z,43.45
2023-05-21T09:49:26.755Z,43.81
2023-05-21T09:51:56.088Z,43.81
2023-05-21T09:54:23.338Z,44.28
2023-05-21T09:56:53.657Z,44.70
2023-05-21T09:59:22.280Z,45.47
2023-05-21T10:01:51.831Z,44.01
2023-05-21T10:04:21.680Z,42.79
2023-05-21T10:06:50.774Z,41.99
2023-05-21T10:09:20.566Z,41.34
2023-05-21T10:11:54.375Z,40.98
2023-05-21T10:14:27.586Z,41.28
2023-05-21T10:16:55.778Z,41.89
2023-05-21T10:19:24.992Z,41.19
2023-05-21T10:21:54.038Z,39.45
2023-05-21T10:24:23.367Z,38.95
2023-05-21T10:26:51.639Z,37.67
2023-05-21T10:29:23.028Z,38.33
2023-05-21T10:31:53.682Z,40.08
2023-05-21T10:34:23.589Z,41.32
2023-05-21T10:36:54.625Z,41.23
2023-05-21T10:39:25.327Z,40.09
2023-05-21T10:42:18.646Z,37.44
2023-05-21T10:45:11.920Z,35.30
2023-05-21T10:48:05.389Z,37.53
2023-05-21T10:51:07.180Z,37.46
2023-05-21T10:53:54.675Z,36.79
2023-05-21T10:56:28.558Z,37.16
2023-05-21T10:59:14.841Z,36.38
2023-05-21T11:01:43.964Z,35.69
2023-05-21T11:04:12.012Z,34.80
2023-05-21T11:06:40.668Z,35.15
2023-05-21T11:09:15.158Z,35.22
2023-05-21T11:11:44.921Z,35.01
2023-05-21T11:14:30.755Z,35.96
2023-05-21T11:16:59.611Z,34.07
2023-05-21T11:19:36.166Z,34.89
2023-05-21T11:22:21.356Z,36.06
2023-05-21T11:24:51.993Z,35.45
2023-05-21T11:27:33.708Z,36.17
2023-05-21T11:30:05.240Z,35.31
2023-05-21T11:32:37.862Z,34.35
2023-05-21T11:35:06.236Z,34.95
2023-05-21T11:37:35.529Z,34.97
2023-05-21T11:40:26.957Z,34.64
2023-05-21T11:42:55.938Z,35.14
2023-05-21T11:45:27.910Z,34.60
2023-05-21T11:47:57.187Z,34.56
2023-05-21T11:50:25.768Z,34.92
2023-05-21T11:52:52.757Z,35.08
2023-05-21T11:55:24.788Z,34.07
2023-05-21T11:57:54.188Z,33.85
2023-05-21T12:00:21.356Z,33.56
2023-05-21T12:02:52.354Z,34.08
2023-05-21T12:05:20.994Z,35.73
2023-05-21T12:07:49.529Z,34.71
2023-05-21T12:10:20.404Z,35.27
2023-05-21T12:12:54.944Z,35.04
2023-05-21T12:15:24.590Z,35.26
2023-05-21T12:17:53.222Z,35.07
2023-05-21T12:20:22.465Z,35.51
2023-05-21T12:22:50.316Z,35.33
2023-05-21T12:25:19.181Z,35.90
2023-05-21T12:27:48.771Z,35.64
2023-05-21T12:33:12.809Z,37.06
2023-05-21T12:35:41.178Z,36.59
2023-05-21T12:38:08.779Z,37.25
2023-05-21T12:40:37.979Z,36.60
2023-05-21T12:43:06.499Z,36.52
2023-05-21T12:45:34.361Z,36.23
2023-05-21T12:48:03.368Z,36.33
2023-05-21T12:50:30.536Z,36.71
2023-05-21T12:52:59.064Z,34.90
2023-05-21T12:55:26.006Z,35.06
2023-05-21T12:58:02.742Z,36.07
2023-05-21T13:00:31.924Z,35.30
2023-05-21T13:03:00.367Z,34.09
2023-05-21T13:05:27.542Z,33.96
2023-05-21T13:07:54.845Z,33.65
2023-05-21T13:10:23.198Z,34.19
2023-05-21T13:12:51.271Z,33.74
2023-05-21T13:15:19.119Z,33.34
2023-05-21T13:17:49.157Z,32.52
2023-05-21T13:20:20.049Z,33.86
2023-05-21T13:22:49.224Z,33.21
2023-05-21T13:25:18.964Z,34.59
2023-05-21T13:27:49.300Z,36.21
2023-05-21T13:33:29.703Z,36.10
2023-05-21T13:35:56.733Z,36.31
2023-05-21T13:38:23.633Z,38.08
2023-05-21T13:40:51.537Z,38.66
2023-05-21T13:43:19.864Z,38.80
2023-05-21T13:45:49.603Z,37.87
2023-05-21T13:48:18.378Z,38.01
2023-05-21T13:50:45.815Z,37.89
2023-05-21T13:53:12.992Z,36.52
2023-05-21T13:55:40.775Z,37.13
2023-05-21T13:58:10.930Z,36.87
2023-05-21T14:00:40.931Z,37.61
2023-05-21T14:03:08.369Z,36.97
2023-05-21T14:05:35.385Z,37.93
2023-05-21T14:08:02.394Z,38.36
2023-05-21T14:10:29.859Z,38.58
2023-05-21T14:13:01.693Z,38.55
2023-05-21T14:15:41.260Z,38.49
2023-05-21T14:18:11.552Z,38.22
2023-05-21T14:20:39.472Z,37.64
2023-05-21T14:23:06.688Z,37.36
2023-05-21T14:25:35.719Z,33.49
2023-05-21T14:28:03.232Z,33.58
2023-05-21T14:30:53.345Z,34.24
2023-05-21T14:33:21.802Z,34.61
2023-05-21T14:35:49.183Z,33.63
2023-05-21T14:38:16.886Z,33.53
2023-05-21T14:40:44.388Z,33.79
2023-05-21T14:43:11.698Z,35.68
2023-05-21T14:45:38.916Z,35.18
2023-05-21T14:48:07.684Z,35.66
2023-05-21T14:50:36.457Z,35.86
2023-05-21T14:53:07.726Z,35.97
2023-05-21T14:55:37.326Z,36.38
2023-05-21T14:58:05.910Z,35.40
2023-05-21T15:00:41.505Z,34.41
2023-05-21T15:04:07.291Z,33.73
2023-05-21T15:06:40.341Z,34.42
2023-05-21T15:09:12.271Z,33.72
2023-05-21T15:11:40.692Z,33.60
2023-05-21T15:14:46.837Z,33.06
2023-05-21T15:17:53.200Z,31.59
2023-05-21T15:20:22.488Z,33.11
2023-05-21T15:22:49.604Z,33.16
2023-05-21T15:25:19.333Z,31.48
2023-05-21T15:27:56.142Z,31.52
2023-05-21T15:33:09.114Z,32.09
2023-05-21T15:35:38.126Z,36.05
2023-05-21T15:38:05.536Z,37.46
2023-05-21T15:40:32.735Z,38.47
2023-05-21T15:42:59.991Z,40.45
2023-05-21T15:45:29.674Z,40.57
2023-05-21T15:47:58.549Z,40.90
2023-05-21T15:50:25.621Z,41.50
2023-05-21T15:52:53.945Z,41.19
2023-05-21T15:55:21.192Z,41.32
2023-05-21T15:57:50.622Z,41.17
2023-05-21T16:00:18.175Z,41.21
2023-05-21T16:02:45.126Z,42.07
2023-05-21T16:05:12.219Z,41.31
2023-05-21T16:07:40.178Z,41.65
2023-05-21T16:10:10.592Z,41.70
2023-05-21T16:12:38.148Z,42.15
2023-05-21T16:15:06.797Z,42.42
2023-05-21T16:17:33.880Z,42.65
2023-05-21T16:20:01.858Z,43.23
2023-05-21T16:22:31.291Z,43.68
2023-05-21T16:24:59.842Z,43.43
2023-05-21T16:27:28.226Z,43.21
2023-05-21T16:29:55.169Z,43.62
2023-05-21T16:32:22.724Z,43.06
2023-05-21T16:34:50.071Z,44.22
2023-05-21T16:37:17.234Z,43.71
2023-05-21T16:39:44.223Z,43.73
2023-05-21T16:42:20.880Z,43.75
2023-05-21T16:45:00.285Z,43.77
2023-05-21T16:47:28.821Z,43.53
2023-05-21T16:50:02.802Z,43.72
2023-05-21T16:52:30.658Z,43.46
2023-05-21T16:54:57.829Z,43.17
2023-05-21T16:57:24.996Z,42.79
2023-05-21T16:59:56.650Z,43.14
2023-05-21T17:02:24.159Z,43.47
2023-05-21T17:04:51.553Z,43.87
2023-05-21T17:07:30.460Z,45.40
2023-05-21T17:09:57.456Z,44.21
2023-05-21T17:12:24.534Z,44.35
2023-05-21T17:14:56.372Z,46.09
2023-05-21T17:17:26.810Z,45.02
2023-05-21T17:20:02.033Z,44.55
2023-05-21T17:22:36.183Z,44.95
2023-05-21T17:25:15.369Z,44.63
2023-05-21T17:27:42.299Z,45.28
2023-05-21T17:30:16.869Z,45.02
2023-05-21T17:32:47.018Z,45.83
2023-05-21T17:35:15.772Z,47.02
2023-05-21T17:37:42.625Z,46.40
2023-05-21T17:40:11.393Z,47.31
2023-05-21T17:42:39.694Z,47.44
2023-05-21T17:45:10.157Z,48.01
2023-05-21T17:47:47.706Z,47.82
2023-05-21T17:50:20.895Z,48.00
2023-05-21T17:52:52.776Z,48.73
2023-05-21T17:55:23.345Z,48.82
2023-05-21T17:57:58.550Z,49.29
2023-05-21T18:00:45.146Z,50.06
2023-05-21T18:07:12.293Z,50.46
2023-05-21T18:09:39.430Z,50.66
2023-05-21T18:12:07.686Z,50.87
2023-05-21T18:14:37.749Z,50.98
2023-05-21T18:17:05.536Z,49.81
2023-05-21T18:19:34.253Z,49.97
2023-05-21T18:22:05.522Z,49.84
2023-05-21T18:24:37.859Z,49.32
2023-05-21T18:27:05.566Z,49.02
2023-05-21T18:29:34.823Z,48.32
2023-05-21T18:32:02.460Z,48.53
2023-05-21T18:34:29.506Z,49.07
2023-05-21T18:36:58.434Z,48.98
2023-05-21T18:39:25.344Z,49.55
2023-05-21T18:42:01.562Z,49.88
2023-05-21T18:44:32.724Z,50.91
2023-05-21T18:46:59.876Z,51.83
2023-05-21T18:49:26.828Z,52.60
2023-05-21T18:51:53.857Z,52.80
2023-05-21T18:54:22.936Z,53.84
2023-05-21T18:56:50.010Z,54.87
2023-05-21T18:59:16.993Z,54.67
2023-05-21T19:01:44.335Z,55.00
2023-05-21T19:04:14.455Z,55.59
2023-05-21T19:06:41.457Z,56.53
2023-05-21T19:09:08.745Z,57.30
2023-05-21T19:11:38.757Z,57.40
2023-05-21T19:14:06.112Z,57.31
2023-05-21T19:16:33.237Z,58.55
2023-05-21T19:19:00.524Z,59.82
2023-05-21T19:21:28.283Z,60.18
2023-05-21T19:24:21.065Z,60.88
2023-05-21T19:26:49.690Z,61.08
2023-05-21T19:29:17.562Z,61.58
2023-05-21T19:31:45.107Z,61.81
2023-05-21T19:34:12.524Z,61.82
2023-05-21T19:36:52.034Z,61.98
2023-05-21T19:39:30.659Z,61.82
2023-05-21T19:41:59.277Z,62.40
2023-05-21T19:44:26.680Z,62.41
2023-05-21T19:47:08.464Z,63.74
2023-05-21T19:49:39.130Z,64.01
2023-05-21T19:52:27.161Z,65.10
2023-05-21T19:55:00.892Z,65.31
2023-05-21T20:01:17.576Z,66.35
2023-05-21T20:03:45.147Z,67.43
2023-05-21T20:06:13.596Z,67.74
2023-05-21T20:08:40.637Z,68.43
2023-05-21T20:11:10.760Z,68.46
2023-05-21T20:14:04.653Z,68.46
2023-05-21T20:16:35.203Z,68.61
2023-05-21T20:19:03.329Z,68.25
2023-05-21T20:21:31.856Z,68.22
2023-05-21T20:23:59.120Z,69.50
2023-05-21T20:26:53.607Z,70.52
2023-05-21T20:29:23.664Z,70.88
2023-05-21T20:31:50.865Z,71.03
2023-05-21T20:35:08.280Z,73.63
2023-05-21T20:37:35.507Z,72.98
2023-05-21T20:40:02.704Z,72.94
2023-05-21T20:42:31.335Z,72.99
2023-05-21T20:44:59.954Z,72.87
2023-05-21T20:47:27.694Z,72.16
2023-05-21T20:49:55.611Z,72.08
2023-05-21T20:52:23.694Z,71.57
2023-05-21T20:54:51.062Z,71.08
2023-05-21T20:57:17.958Z,70.87
2023-05-21T20:59:44.791Z,70.82
2023-05-21T21:02:13.270Z,70.69
2023-05-21T21:04:40.250Z,72.04
2023-05-21T21:07:07.316Z,71.99
2023-05-21T21:09:34.413Z,72.87
2023-05-21T21:12:06.156Z,73.05
2023-05-21T21:14:38.454Z,72.50
2023-05-21T21:17:05.530Z,72.83
2023-05-21T21:19:33.782Z,73.22
2023-05-21T21:22:01.169Z,73.04
2023-05-21T21:24:28.034Z,72.98
2023-05-21T21:26:54.979Z,72.89
2023-05-21T21:29:21.854Z,72.64
2023-05-21T21:31:48.969Z,72.27
2023-05-21T21:34:16.044Z,71.81
2023-05-21T21:36:44.350Z,71.76
2023-05-21T21:39:11.507Z,71.54
2023-05-21T21:41:38.458Z,71.37
2023-05-21T21:44:05.407Z,71.56
2023-05-21T21:46:32.678Z,73.04
2023-05-21T21:48:59.693Z,74.11
2023-05-21T21:51:26.912Z,74.53
2023-05-21T21:53:55.181Z,74.82
2023-05-21T21:56:22.123Z,74.64
2023-05-21T21:58:49.118Z,74.83
2023-05-21T22:01:16.133Z,74.89
2023-05-21T22:03:43.350Z,75.25
2023-05-21T22:06:10.261Z,75.24
2023-05-21T22:08:37.181Z,75.82
2023-05-21T22:11:05.932Z,76.09
2023-05-21T22:13:32.785Z,76.78
2023-05-21T22:16:00.081Z,76.53
2023-05-21T22:18:39.362Z,76.54
2023-05-21T22:21:08.336Z,76.19
2023-05-21T22:23:35.668Z,75.75
2023-05-21T22:26:02.650Z,75.70
2023-05-21T22:28:31.155Z,76.03
2023-05-21T22:31:19.497Z,76.86
2023-05-21T22:33:46.545Z,77.61
2023-05-21T22:36:13.518Z,78.19
2023-05-21T22:38:40.562Z,78.15
2023-05-21T22:41:07.503Z,78.16
2023-05-21T22:43:37.295Z,77.78
2023-05-21T22:46:04.267Z,77.86
2023-05-21T22:48:31.214Z,77.57
2023-05-21T22:50:58.310Z,77.21
2023-05-21T22:53:25.810Z,76.80
2023-05-21T22:55:52.859Z,76.44
2023-05-21T22:58:19.733Z,77.17
2023-05-21T23:00:48.253Z,77.35
2023-05-21T23:03:15.358Z,77.35
2023-05-21T23:05:42.418Z,78.55
2023-05-21T23:08:09.494Z,78.83
2023-05-21T23:10:36.439Z,79.24
2023-05-21T23:13:03.637Z,79.44
2023-05-21T23:15:30.480Z,79.92
2023-05-21T23:17:58.696Z,79.63
2023-05-21T23:20:25.920Z,79.74
2023-05-21T23:22:52.804Z,79.43
2023-05-21T23:25:19.684Z,79.05
2023-05-21T23:27:46.774Z,78.82
2023-05-21T23:30:14.031Z,79.09
2023-05-21T23:32:41.183Z,78.92
2023-05-21T23:35:10.230Z,78.50
2023-05-21T23:37:37.103Z,79.35
2023-05-21T23:40:05.176Z,80.00
2023-05-21T23:42:32.085Z,80.57
2023-05-21T23:44:59.587Z,80.48
2023-05-21T23:47:26.544Z,80.69
2023-05-21T23:49:53.495Z,81.09
2023-05-21T23:52:22.048Z,80.70
2023-05-21T23:54:49.180Z,80.38
2023-05-21T23:57:16.136Z,80.10
2023-05-21T23:59:43.644Z,80.58
